createdAt,value
2023-04-04T00:00:35.911Z,1.91
2023-04-04T00:03:02.924Z,1.88
2023-04-04T00:05:29.871Z,1.66
2023-04-04T00:07:56.697Z,1.56
2023-04-04T00:10:23.588Z,1.84
2023-04-04T00:12:50.307Z,1.66
2023-04-04T00:15:19.358Z,1.44
2023-04-04T00:17:46.100Z,1.74
2023-04-04T00:20:15.238Z,1.66
2023-04-04T00:22:42.406Z,1.47
2023-04-04T00:28:50.634Z,1.58
2023-04-04T00:31:18.091Z,1.42
2023-04-04T00:33:44.697Z,1.63
2023-04-04T00:36:11.705Z,1.32
2023-04-04T00:38:38.381Z,1.53
2023-04-04T00:41:07.684Z,1.51
2023-04-04T00:43:35.408Z,1.51
2023-04-04T00:46:02.414Z,1.56
2023-04-04T00:48:29.880Z,1.56
2023-04-04T00:50:56.984Z,1.38
2023-04-04T00:53:23.752Z,1.47
2023-04-04T00:55:50.639Z,1.53
2023-04-04T00:58:19.905Z,-0.62
2023-04-04T01:00:47.031Z,1.50
2023-04-04T01:03:14.391Z,1.50
2023-04-04T01:05:41.942Z,1.46
2023-04-04T01:08:08.801Z,1.41
2023-04-04T01:10:35.791Z,1.30
2023-04-04T01:13:04.878Z,1.34
2023-04-04T01:15:31.628Z,1.32
2023-04-04T01:18:02.406Z,1.30
2023-04-04T01:20:32.951Z,1.23
2023-04-04T01:23:01.999Z,1.26
2023-04-04T01:25:34.887Z,1.25
2023-04-04T01:28:01.738Z,1.26
2023-04-04T01:30:35.010Z,1.24
2023-04-04T01:33:11.000Z,1.09
2023-04-04T01:35:51.738Z,1.12
2023-04-04T01:38:58.655Z,1.14
2023-04-04T01:41:26.323Z,1.01
2023-04-04T01:43:56.196Z,1.03
2023-04-04T01:46:25.620Z,1.06
2023-04-04T01:48:55.294Z,0.80
2023-04-04T01:51:24.722Z,1.02
2023-04-04T01:53:51.394Z,0.90
2023-04-04T01:56:18.532Z,0.97
2023-04-04T01:58:45.229Z,0.96
2023-04-04T02:01:11.929Z,0.95
2023-04-04T02:03:38.676Z,0.97
2023-04-04T02:06:05.942Z,0.96
2023-04-04T02:08:32.541Z,0.74
2023-04-04T02:10:59.397Z,0.90
2023-04-04T02:13:26.177Z,0.78
2023-04-04T02:15:56.116Z,0.85
2023-04-04T02:18:26.060Z,0.82
2023-04-04T02:20:57.659Z,0.16
2023-04-04T02:23:24.657Z,-0.67
2023-04-04T02:25:52.010Z,0.74
2023-04-04T02:28:19.326Z,0.70
2023-04-04T02:30:46.175Z,0.68
2023-04-04T02:33:12.980Z,0.66
2023-04-04T02:35:39.742Z,0.43
2023-04-04T02:38:06.721Z,0.60
2023-04-04T02:40:33.293Z,0.60
2023-04-04T02:42:59.955Z,0.59
2023-04-04T02:45:26.754Z,0.49
2023-04-04T02:47:53.551Z,0.39
2023-04-04T02:50:20.312Z,0.52
2023-04-04T02:52:47.051Z,0.50
2023-04-04T02:55:13.821Z,0.46
2023-04-04T02:57:40.770Z,0.48
2023-04-04T03:00:08.237Z,0.35
2023-04-04T03:02:35.205Z,0.11
2023-04-04T03:05:07.084Z,0.41
2023-04-04T03:07:38.409Z,0.39
2023-04-04T03:10:07.695Z,0.24
2023-04-04T03:12:34.428Z,0.29
2023-04-04T03:15:04.743Z,0.29
2023-04-04T03:17:31.922Z,0.20
2023-04-04T03:19:58.626Z,0.17
2023-04-04T03:22:25.371Z,-1.79
2023-04-04T03:24:54.448Z,0.26
2023-04-04T03:27:23.253Z,0.25
2023-04-04T03:29:53.012Z,0.24
2023-04-04T03:32:19.640Z,0.21
2023-04-04T03:34:48.599Z,0.21
2023-04-04T03:37:15.179Z,0.19
2023-04-04T03:39:44.061Z,0.01
2023-04-04T03:42:11.110Z,0.12
2023-04-04T03:44:41.784Z,0.08
2023-04-04T03:47:08.645Z,0.04
2023-04-04T03:49:35.367Z,-0.58
2023-04-04T03:52:04.973Z,-0.16
2023-04-04T03:54:31.584Z,0.01
2023-04-04T03:56:58.520Z,-0.04
2023-04-04T03:59:25.608Z,-0.19
2023-04-04T04:01:52.672Z,-0.34
2023-04-04T04:04:19.424Z,-0.11
2023-04-04T04:06:49.034Z,-0.12
2023-04-04T04:09:16.071Z,-0.27
2023-04-04T04:11:43.056Z,-0.17
2023-04-04T04:14:09.649Z,-0.20
2023-04-04T04:16:40.299Z,-0.33
2023-04-04T04:19:07.100Z,-0.30
2023-04-04T04:21:33.774Z,-0.34
2023-04-04T04:24:00.491Z,-0.40
2023-04-04T04:26:27.343Z,-0.41
2023-04-04T04:28:54.240Z,-0.42
2023-04-04T04:31:23.377Z,-0.47
2023-04-04T04:33:52.673Z,-0.39
2023-04-04T04:36:19.408Z,-0.45
2023-04-04T04:38:50.916Z,-0.62
2023-04-04T04:41:17.667Z,-0.65
2023-04-04T04:43:44.368Z,-0.63
2023-04-04T04:46:11.331Z,-0.48
2023-04-04T04:48:37.996Z,-0.49
2023-04-04T04:51:06.892Z,-0.98
2023-04-04T04:53:33.665Z,-0.53
2023-04-04T04:56:00.398Z,-0.51
2023-04-04T04:58:28.630Z,-0.53
2023-04-04T05:00:59.673Z,-0.67
2023-04-04T05:03:26.526Z,-0.56
2023-04-04T05:05:53.483Z,-0.53
2023-04-04T05:08:20.166Z,-0.64
2023-04-04T05:10:49.042Z,-0.69
2023-04-04T05:13:15.704Z,-0.76
2023-04-04T05:15:48.761Z,-0.53
2023-04-04T05:18:25.030Z,-0.69
2023-04-04T05:20:56.563Z,-1.15
2023-04-04T05:23:26.555Z,-0.50
2023-04-04T05:25:55.844Z,-0.60
2023-04-04T05:28:23.782Z,-0.46
2023-04-04T05:30:50.518Z,-0.47
2023-04-04T05:33:17.369Z,-0.46
2023-04-04T05:35:51.989Z,-0.34
2023-04-04T05:38:23.265Z,-0.29
2023-04-04T05:40:49.928Z,-0.75
2023-04-04T05:43:17.969Z,-0.20
2023-04-04T05:45:44.853Z,-0.25
2023-04-04T05:48:11.943Z,-0.10
2023-04-04T05:50:42.344Z,-0.02
2023-04-04T05:53:13.045Z,0.05
2023-04-04T05:55:39.774Z,0.06
2023-04-04T05:58:07.341Z,0.24
2023-04-04T06:00:35.466Z,0.71
2023-04-04T06:03:04.445Z,1.88
2023-04-04T06:05:32.060Z,1.66
2023-04-04T06:08:02.118Z,1.80
2023-04-04T06:10:43.455Z,3.52
2023-04-04T06:13:19.503Z,6.01
2023-04-04T06:16:03.076Z,6.40
2023-04-04T06:18:38.712Z,4.85
2023-04-04T06:21:11.342Z,3.30
2023-04-04T06:23:47.255Z,2.93
2023-04-04T06:26:17.024Z,2.62
2023-04-04T06:28:52.021Z,2.35
2023-04-04T06:31:18.934Z,2.21
2023-04-04T06:33:48.976Z,2.13
2023-04-04T06:36:16.500Z,2.14
2023-04-04T06:38:43.346Z,2.33
2023-04-04T06:41:12.476Z,2.31
2023-04-04T06:43:41.812Z,3.06
2023-04-04T06:46:09.427Z,3.89
2023-04-04T06:48:36.671Z,4.99
2023-04-04T06:51:09.128Z,6.76
2023-04-04T06:53:36.875Z,8.00
2023-04-04T06:56:06.232Z,9.23
2023-04-04T06:58:35.869Z,9.37
2023-04-04T07:01:02.639Z,9.02
2023-04-04T07:03:30.169Z,9.39
2023-04-04T07:05:57.219Z,10.14
2023-04-04T07:08:24.308Z,10.11
2023-04-04T07:10:51.610Z,11.54
2023-04-04T07:13:20.616Z,12.23
2023-04-04T07:15:50.682Z,11.88
2023-04-04T07:18:19.587Z,12.39
2023-04-04T07:20:54.528Z,12.79
2023-04-04T07:23:21.272Z,13.30
2023-04-04T07:25:50.356Z,13.49
2023-04-04T07:28:17.343Z,13.98
2023-04-04T07:30:46.176Z,13.76
2023-04-04T07:33:13.447Z,13.18
2023-04-04T07:35:43.002Z,13.41
2023-04-04T07:38:10.342Z,13.81
2023-04-04T07:40:39.670Z,13.81
2023-04-04T07:43:06.780Z,14.45
2023-04-04T07:45:38.663Z,14.28
2023-04-04T07:48:05.686Z,14.82
2023-04-04T07:50:32.369Z,16.18
2023-04-04T07:53:03.902Z,14.69
2023-04-04T07:55:30.600Z,15.03
2023-04-04T07:57:58.478Z,14.63
2023-04-04T08:00:26.596Z,16.55
2023-04-04T08:02:54.545Z,17.16
2023-04-04T08:05:21.667Z,16.45
2023-04-04T08:07:50.532Z,16.38
2023-04-04T08:10:17.905Z,16.43
2023-04-04T08:12:45.258Z,17.68
2023-04-04T08:15:12.314Z,17.66
2023-04-04T08:17:39.265Z,17.09
2023-04-04T08:20:06.522Z,17.29
2023-04-04T08:22:33.815Z,17.07
2023-04-04T08:25:00.872Z,18.17
2023-04-04T08:27:29.962Z,18.52
2023-04-04T08:29:58.787Z,17.76
2023-04-04T08:32:25.376Z,17.70
2023-04-04T08:34:52.158Z,17.72
2023-04-04T08:37:21.257Z,18.50
2023-04-04T08:39:47.866Z,18.89
2023-04-04T08:42:17.624Z,17.52
2023-04-04T08:44:50.820Z,17.50
2023-04-04T08:47:21.442Z,18.42
2023-04-04T08:49:49.783Z,18.42
2023-04-04T08:52:21.870Z,18.22
2023-04-04T08:54:52.676Z,17.54
2023-04-04T08:57:22.289Z,17.27
2023-04-04T08:59:49.346Z,16.60
2023-04-04T09:02:38.548Z,16.51
2023-04-04T09:05:08.796Z,16.07
2023-04-04T09:07:38.538Z,15.53
2023-04-04T09:10:09.378Z,15.54
2023-04-04T09:12:39.493Z,14.97
2023-04-04T09:15:09.993Z,14.38
2023-04-04T09:17:37.558Z,12.98
2023-04-04T09:20:24.521Z,13.26
2023-04-04T09:22:51.512Z,13.33
2023-04-04T09:25:18.694Z,13.62
2023-04-04T09:27:45.791Z,13.32
2023-04-04T09:30:12.510Z,12.82
2023-04-04T09:32:39.153Z,12.75
2023-04-04T09:35:06.463Z,12.64
2023-04-04T09:37:33.453Z,12.91
2023-04-04T09:40:01.546Z,12.86
2023-04-04T09:45:13.238Z,12.64
2023-04-04T09:47:49.709Z,12.64
2023-04-04T09:50:23.597Z,12.53
2023-04-04T09:52:50.972Z,12.17
2023-04-04T09:55:20.045Z,11.94
2023-04-04T09:57:47.562Z,12.33
2023-04-04T10:00:23.177Z,12.47
2023-04-04T10:02:53.317Z,12.27
2023-04-04T10:05:20.747Z,11.82
2023-04-04T10:07:49.015Z,11.33
2023-04-04T10:10:18.243Z,11.40
2023-04-04T10:12:48.171Z,11.58
2023-04-04T10:15:16.451Z,11.62
2023-04-04T10:17:44.279Z,11.42
2023-04-04T10:20:11.485Z,11.30
2023-04-04T10:22:38.911Z,11.65
2023-04-04T10:25:07.302Z,11.60
2023-04-04T10:27:34.478Z,11.47
2023-04-04T10:30:01.721Z,11.00
2023-04-04T10:32:51.621Z,10.96
2023-04-04T10:35:22.772Z,11.26
2023-04-04T10:38:02.024Z,11.33
2023-04-04T10:40:39.020Z,11.35
2023-04-04T10:43:09.747Z,11.06
2023-04-04T10:45:40.235Z,10.92
2023-04-04T10:48:10.514Z,10.86
2023-04-04T10:50:39.393Z,11.01
2023-04-04T10:53:07.577Z,11.18
2023-04-04T10:55:35.590Z,10.94
2023-04-04T10:58:04.924Z,11.15
2023-04-04T11:00:31.624Z,10.83
2023-04-04T11:03:02.055Z,10.89
2023-04-04T11:05:47.483Z,10.84
2023-04-04T11:08:25.409Z,10.95
2023-04-04T11:10:53.998Z,11.28
2023-04-04T11:13:26.224Z,11.43
2023-04-04T11:16:08.158Z,11.53
2023-04-04T11:18:41.778Z,11.54
2023-04-04T11:21:19.932Z,11.42
2023-04-04T11:23:49.847Z,11.32
2023-04-04T11:26:37.508Z,11.17
2023-04-04T11:29:05.392Z,11.20
2023-04-04T11:31:40.739Z,11.43
2023-04-04T11:34:14.113Z,11.76
2023-04-04T11:36:41.493Z,11.86
2023-04-04T11:39:10.982Z,11.59
2023-04-04T11:41:52.770Z,11.31
2023-04-04T11:44:22.470Z,11.16
2023-04-04T11:46:54.787Z,11.37
2023-04-04T11:49:27.570Z,11.53
2023-04-04T11:51:54.437Z,11.71
2023-04-04T11:54:21.147Z,11.59
2023-04-04T11:56:48.213Z,11.68
2023-04-04T11:59:20.072Z,11.57
2023-04-04T13:31:29.569Z,12.27
2023-04-04T13:33:56.130Z,12.10
2023-04-04T13:36:22.701Z,11.89
2023-04-04T13:38:49.404Z,11.93
2023-04-04T13:41:16.034Z,11.86
2023-04-04T13:43:42.587Z,11.91
2023-04-04T13:46:09.590Z,11.68
2023-04-04T13:48:36.248Z,11.85
2023-04-04T13:51:02.858Z,11.66
2023-04-04T13:53:34.004Z,11.71
2023-04-04T13:56:17.964Z,11.73
2023-04-04T13:58:48.273Z,11.73
2023-04-04T14:01:17.465Z,11.51
2023-04-04T14:03:44.180Z,11.65
2023-04-04T14:06:12.969Z,11.64
2023-04-04T14:08:41.849Z,11.67
2023-04-04T14:11:08.501Z,11.57
2023-04-04T14:13:36.406Z,11.75
2023-04-04T14:16:03.316Z,11.68
2023-04-04T14:18:29.924Z,11.69
2023-04-04T14:20:56.868Z,11.82
2023-04-04T14:23:25.910Z,11.69
2023-04-04T14:25:52.725Z,11.66
2023-04-04T14:28:24.727Z,11.50
2023-04-04T14:30:51.635Z,11.64
2023-04-04T14:33:18.420Z,11.54
2023-04-04T14:35:45.095Z,11.51
2023-04-04T14:38:13.910Z,11.21
2023-04-04T14:40:45.361Z,11.69
2023-04-04T14:43:11.985Z,11.70
2023-04-04T14:45:38.890Z,11.56
2023-04-04T14:48:05.846Z,11.61
2023-04-04T14:50:32.412Z,11.65
2023-04-04T14:52:59.055Z,11.65
2023-04-04T14:55:28.090Z,11.69
2023-04-04T14:58:01.960Z,11.72
2023-04-04T15:00:29.828Z,11.64
2023-04-04T15:02:56.575Z,11.69
2023-04-04T15:05:24.954Z,11.69
2023-04-04T15:07:51.554Z,11.61
2023-04-04T15:10:18.188Z,11.49
2023-04-04T15:12:44.795Z,11.58
2023-04-04T15:15:13.240Z,11.39
2023-04-04T15:17:44.902Z,11.30
2023-04-04T15:20:12.067Z,11.38
2023-04-04T15:22:39.857Z,11.43
2023-04-04T15:25:08.414Z,11.43
2023-04-04T15:27:35.433Z,11.48
2023-04-04T15:30:02.144Z,11.46
2023-04-04T15:32:28.836Z,11.44
2023-04-04T15:34:58.523Z,11.34
2023-04-04T15:37:25.996Z,11.35
2023-04-04T15:39:53.880Z,11.36
2023-04-04T15:42:21.340Z,11.34
2023-04-04T15:44:47.980Z,11.41
2023-04-04T15:47:16.796Z,11.48
2023-04-04T15:49:43.512Z,11.36
2023-04-04T15:52:12.418Z,11.25
2023-04-04T15:54:41.529Z,11.21
2023-04-04T15:57:08.228Z,11.21
2023-04-04T15:59:34.952Z,11.22
2023-04-04T16:02:04.761Z,11.20
2023-04-04T16:04:31.335Z,11.22
2023-04-04T16:06:57.890Z,11.28
2023-04-04T16:09:24.889Z,11.24
2023-04-04T16:11:51.757Z,11.11
2023-04-04T16:14:18.493Z,11.24
2023-04-04T16:16:45.095Z,11.27
2023-04-04T16:21:41.855Z,11.25
2023-04-04T16:24:08.906Z,11.27
2023-04-04T16:26:35.880Z,11.30
2023-04-04T16:29:05.818Z,11.34
2023-04-04T16:31:34.971Z,11.42
2023-04-04T16:34:03.902Z,11.43
2023-04-04T16:36:31.044Z,11.35
2023-04-04T16:39:02.615Z,11.37
2023-04-04T16:41:29.347Z,11.29
2023-04-04T16:43:56.014Z,11.24
2023-04-04T16:46:22.623Z,11.12
2023-04-04T16:48:51.686Z,11.09
2023-04-04T16:51:18.278Z,11.12
2023-04-04T16:53:47.084Z,11.09
2023-04-04T16:56:13.653Z,11.13
2023-04-04T16:58:40.571Z,11.16
2023-04-04T17:01:12.321Z,11.15
2023-04-04T17:03:38.946Z,11.05
2023-04-04T17:06:06.643Z,11.09
2023-04-04T17:08:33.246Z,11.05
2023-04-04T17:10:59.967Z,11.00
2023-04-04T17:13:29.294Z,10.93
2023-04-04T17:16:01.043Z,10.79
2023-04-04T17:18:27.705Z,10.77
2023-04-04T17:20:54.322Z,10.83
2023-04-04T17:23:20.966Z,10.73
2023-04-04T17:25:47.556Z,10.71
2023-04-04T17:28:14.099Z,10.65
2023-04-04T17:30:41.501Z,10.61
2023-04-04T17:33:23.668Z,10.55
2023-04-04T17:35:50.377Z,10.53
2023-04-04T17:38:16.907Z,10.52
2023-04-04T17:40:46.634Z,10.41
2023-04-04T17:43:13.257Z,10.38
2023-04-04T17:45:39.818Z,10.39
2023-04-04T17:48:06.665Z,10.35
2023-04-04T17:50:33.215Z,10.27
2023-04-04T17:53:02.169Z,10.09
2023-04-04T17:55:29.191Z,10.06
2023-04-04T17:57:57.194Z,10.12
2023-04-04T18:00:24.138Z,10.07
2023-04-04T18:02:50.851Z,10.01
2023-04-04T18:05:17.995Z,10.01
2023-04-04T18:07:44.651Z,9.50
2023-04-04T18:10:11.543Z,9.88
2023-04-04T18:12:39.204Z,9.62
2023-04-04T18:15:08.582Z,10.08
2023-04-04T18:17:35.351Z,9.92
2023-04-04T18:20:05.520Z,9.85
2023-04-04T18:22:33.396Z,9.75
2023-04-04T18:25:02.567Z,9.63
2023-04-04T18:27:29.129Z,9.67
2023-04-04T18:29:55.771Z,9.54
2023-04-04T18:32:26.417Z,9.42
2023-04-04T18:34:55.817Z,9.46
2023-04-04T18:37:22.406Z,9.40
2023-04-04T18:39:49.000Z,9.26
2023-04-04T18:42:15.687Z,9.30
2023-04-04T18:44:42.323Z,9.24
2023-04-04T18:47:09.121Z,9.14
2023-04-04T18:49:36.439Z,9.05
2023-04-04T18:52:03.156Z,8.90
2023-04-04T18:54:30.318Z,8.91
2023-04-04T18:57:00.711Z,8.89
2023-04-04T18:59:27.398Z,8.84
2023-04-04T19:01:54.278Z,8.83
2023-04-04T19:04:24.163Z,8.74
2023-04-04T19:06:53.978Z,8.80
2023-04-04T19:09:21.266Z,8.76
2023-04-04T19:11:52.727Z,9.02
2023-04-04T19:14:19.592Z,8.80
2023-04-04T19:16:48.444Z,8.70
2023-04-04T19:19:15.024Z,8.50
2023-04-04T19:21:42.289Z,8.46
2023-04-04T19:24:08.940Z,8.44
2023-04-04T19:26:35.544Z,8.34
2023-04-04T19:29:04.347Z,8.81
2023-04-04T19:31:36.034Z,8.51
2023-04-04T19:34:03.790Z,8.40
2023-04-04T19:36:35.906Z,8.32
2023-04-04T19:39:02.648Z,8.30
2023-04-04T19:41:36.614Z,8.24
2023-04-04T19:44:04.276Z,7.94
2023-04-04T19:46:34.785Z,8.10
2023-04-04T19:49:03.794Z,8.06
2023-04-04T19:51:38.620Z,7.93
2023-04-04T19:54:09.325Z,7.97
2023-04-04T19:56:36.326Z,7.88
2023-04-04T19:59:06.205Z,7.87
2023-04-04T20:01:34.914Z,7.85
2023-04-04T20:04:09.638Z,7.82
2023-04-04T20:06:38.362Z,7.79
2023-04-04T20:09:13.148Z,7.63
2023-04-04T20:11:39.909Z,7.63
2023-04-04T20:14:08.337Z,7.65
2023-04-04T20:16:35.806Z,7.73
2023-04-04T20:19:12.439Z,7.57
2023-04-04T20:21:41.840Z,7.52
2023-04-04T20:24:09.368Z,7.46
2023-04-04T20:26:38.832Z,7.42
2023-04-04T20:29:16.056Z,7.76
2023-04-04T20:31:52.576Z,7.35
2023-04-04T20:34:33.496Z,7.41
2023-04-04T20:37:03.416Z,7.27
2023-04-04T20:39:46.799Z,7.29
2023-04-04T20:42:31.260Z,7.20
2023-04-04T20:45:01.059Z,7.17
2023-04-04T20:47:51.130Z,7.08
2023-04-04T20:50:17.965Z,7.08
2023-04-04T20:52:59.931Z,7.02
2023-04-04T20:55:30.731Z,6.98
2023-04-04T20:58:06.141Z,6.86
2023-04-04T21:00:33.656Z,6.95
2023-04-04T21:03:02.539Z,6.85
2023-04-04T21:05:34.161Z,6.87
2023-04-04T21:08:04.621Z,6.86
2023-04-04T21:10:37.298Z,6.82
2023-04-04T21:13:05.651Z,6.74
2023-04-04T21:15:38.779Z,6.74
2023-04-04T21:18:12.151Z,6.63
2023-04-04T21:20:48.018Z,6.70
2023-04-04T21:23:30.711Z,6.67
2023-04-04T21:26:02.653Z,6.63
2023-04-04T21:28:38.859Z,6.21
2023-04-04T21:31:16.235Z,6.42
2023-04-04T21:33:47.903Z,6.44
2023-04-04T21:36:23.832Z,6.45
2023-04-04T21:38:52.407Z,6.42
2023-04-04T21:41:32.642Z,6.36
2023-04-04T21:44:01.977Z,6.38
2023-04-04T21:46:33.396Z,6.31
2023-04-04T21:49:02.862Z,6.20
2023-04-04T21:51:29.678Z,6.12
2023-04-04T21:53:57.032Z,5.99
2023-04-04T21:56:27.565Z,5.96
2023-04-04T21:58:57.276Z,5.88
2023-04-04T22:01:27.262Z,5.83
2023-04-04T22:03:56.396Z,5.79
2023-04-04T22:06:25.401Z,5.70
2023-04-04T22:08:54.570Z,5.63
2023-04-04T22:11:21.177Z,5.62
2023-04-04T22:13:49.252Z,5.60
2023-04-04T22:16:19.720Z,5.59
2023-04-04T22:18:48.226Z,5.49
2023-04-04T22:21:16.243Z,5.49
2023-04-04T22:23:43.012Z,5.45
2023-04-04T22:26:13.956Z,5.36
2023-04-04T22:28:42.171Z,5.33
2023-04-04T22:31:09.383Z,5.28
2023-04-04T22:33:35.951Z,5.09
2023-04-04T22:36:03.584Z,5.18
2023-04-04T22:38:30.376Z,5.06
2023-04-04T22:41:00.186Z,5.12
2023-04-04T22:43:29.173Z,5.08
2023-04-04T22:45:56.018Z,4.99
2023-04-04T22:48:25.538Z,4.97
2023-04-04T22:50:55.810Z,4.90
2023-04-04T22:53:26.701Z,4.84
2023-04-04T22:55:59.856Z,4.79
2023-04-04T22:58:26.723Z,4.62
2023-04-04T23:00:56.061Z,4.70
2023-04-04T23:03:22.843Z,4.60
2023-04-04T23:05:55.456Z,4.51
2023-04-04T23:08:24.499Z,4.53
2023-04-04T23:10:53.742Z,4.53
2023-04-04T23:13:20.838Z,4.35
2023-04-04T23:15:47.608Z,4.42
2023-04-04T23:18:14.442Z,4.35
2023-04-04T23:20:44.807Z,4.31
2023-04-04T23:23:13.937Z,4.36
2023-04-04T23:25:40.609Z,4.03
2023-04-04T23:28:09.940Z,4.25
2023-04-04T23:30:36.905Z,4.24
2023-04-04T23:33:03.947Z,4.09
2023-04-04T23:35:33.178Z,4.18
2023-04-04T23:38:02.341Z,4.02
2023-04-04T23:40:29.042Z,4.06
2023-04-04T23:42:55.898Z,3.89
2023-04-04T23:45:26.307Z,3.95
2023-04-04T23:47:53.728Z,3.66
2023-04-04T23:50:20.541Z,3.83
2023-04-04T23:52:49.440Z,3.69
2023-04-04T23:55:17.193Z,3.78
2023-04-04T23:57:47.124Z,3.74
